Angola, NY (14006)

1:50 AM EST on December 03, 2016 (GMT -0500)
Sturgeon Point | | Change Station

Elev 653 ft 42.69 °N, 79.05 °W | Updated 4 seconds ago

Overcast
Overcast
40.3 °F
Feels Like 38 °F
N
4.0
Wind Variable Wind from SE
Gusts 7.4 mph

Today
High -- | Low -- °F
--% Chance of Precip.
Yesterday
High -- | Low -- °F
Precip. -- in
Pressure 30.11 in
Visibility 10.0 miles
Clouds Scattered Clouds 1600 ft
Mostly Cloudy 2200 ft
Overcast 3200 ft
Windchill 38 °F
Dew Point 34 °F
Humidity 78%
Rainfall 0.00 in
Snow Depth Not available.
7:29 AM 4:43 PM
Waxing Crescent, 13% visible
METAR KDKK 030553Z AUTO 28012G20KT 10SM SCT016 BKN022 OVC032 04/01 A3009 RMK AO2 RAB06E16 SLP196 P0000 60000 T00440011 10050 20033 51006
Pressure 30.11 in
Visibility 10.0 miles
Clouds Scattered Clouds 1600 ft
Mostly Cloudy 2200 ft
Overcast 3200 ft
Windchill 38 °F
Dew Point 34 °F
Humidity 78%
Rainfall 0.00 in
Snow Depth Not available.
7:29 AM 4:43 PM
Waxing Crescent, 13% visible
METAR KDKK 030553Z AUTO 28012G20KT 10SM SCT016 BKN022 OVC032 04/01 A3009 RMK AO2 RAB06E16 SLP196 P0000 60000 T00440011 10050 20033 51006

10-Day Weather Forecast

Almanac

Astronomy

Dec. 03, 2016 Rise Set
Actual Time
Civil Twilight
Nautical Twilight
Astronomical Twilight
Moon
Length of Visible Light
Length of Day
Tomorrow will be .
, % of the Moon is Illuminated

Today's Extremes

State Highs State Lows

Community

WunderPhotos

Upload Photos

1,955,432 photos uploaded!

WunderBlog® & News

Nearby

Air Quality

  Air Quality AQ Index Pollutant
Not available.

Snow Depth

Station Depth Elevation

Earthquake Activity

City Distance Mag. Time & Date
Minimum magnitude displayed is 2.5.

Coastal Water Temperatures

Place Temperature

Stations

Nearby Weather Stations

Station Location Temp. Windchill Dew Point Humidity Wind Precip. Elev Updated Type
                   

Watches & Warnings

There are currently no watches in effect.